EDW192 LSZH-LTBS
Flight info
| Callsign | EDW192 |
|---|---|
| Flight time | N/A |
| Altitude | 37000 |
| Route | DEGES3W/28 DEGES Z2 TUNUM Z204 GEDSO DCT DEGUM DCT TIVNU DCT VABEK UL603 OLOTA DCT RUGAS DCT RIKSO UP14 ODNOD UT491 SONUP |
| Aircraft | A320/M-SDE3FGHIRWY/LB1 |
Departure
| Time | 2026-04-26 14:26 |
|---|---|
| Airport | Zürich Airport (LSZH) |
Arrival
| Time | N/A |
|---|---|
| Airport | Dalaman International Airport (LTBS) |
| Time | Latitude | Longitude | Altitude | Speed | Heading |
|---|---|---|---|---|---|
| 2026-04-26 14:05 | 47.46046 | 8.55834 | 1404 ft | 0 kts | 6° |
| 2026-04-26 14:16 | 47.46036 | 8.55833 | 1404 ft | 2 kts | 6° |
| 2026-04-26 14:17 | 47.46019 | 8.55830 | 1406 ft | 2 kts | 6° |
| 2026-04-26 14:17 | 47.46001 | 8.55828 | 1409 ft | 3 kts | 6° |
| 2026-04-26 14:17 | 47.45984 | 8.55825 | 1411 ft | 2 kts | 6° |
| 2026-04-26 14:17 | 47.45967 | 8.55820 | 1411 ft | 2 kts | 22° |
| 2026-04-26 14:18 | 47.45952 | 8.55806 | 1414 ft | 3 kts | 57° |
| 2026-04-26 14:18 | 47.45945 | 8.55781 | 1409 ft | 3 kts | 95° |
| 2026-04-26 14:18 | 47.45946 | 8.55777 | 1408 ft | 0 kts | 96° |
| 2026-04-26 14:22 | 47.45945 | 8.55784 | 1410 ft | 4 kts | 96° |
| 2026-04-26 14:22 | 47.45939 | 8.55857 | 1407 ft | 8 kts | 97° |
| 2026-04-26 14:23 | 47.45933 | 8.55935 | 1413 ft | 10 kts | 97° |
| 2026-04-26 14:23 | 47.45923 | 8.56090 | 1409 ft | 20 kts | 95° |
| 2026-04-26 14:23 | 47.45910 | 8.56293 | 1413 ft | 19 kts | 97° |
| 2026-04-26 14:23 | 47.45867 | 8.56459 | 1421 ft | 16 kts | 136° |
| 2026-04-26 14:24 | 47.45799 | 8.56585 | 1420 ft | 16 kts | 94° |
| 2026-04-26 14:24 | 47.45787 | 8.56753 | 1422 ft | 17 kts | 97° |
| 2026-04-26 14:24 | 47.45775 | 8.56920 | 1423 ft | 15 kts | 95° |
| 2026-04-26 14:24 | 47.45730 | 8.57030 | 1425 ft | 11 kts | 155° |
| 2026-04-26 14:25 | 47.45669 | 8.57011 | 1425 ft | 6 kts | 222° |
| 2026-04-26 14:25 | 47.45667 | 8.56964 | 1424 ft | 1 kts | 274° |
| 2026-04-26 14:25 | 47.45683 | 8.56760 | 1420 ft | 56 kts | 277° |
| 2026-04-26 14:25 | 47.45750 | 8.55783 | 1410 ft | 132 kts | 276° |
| 2026-04-26 14:26 | 47.45878 | 8.54145 | 1476 ft | 178 kts | 279° |
| 2026-04-26 14:26 | 47.46018 | 8.52357 | 2308 ft | 173 kts | 278° |
| 2026-04-26 14:26 | 47.46138 | 8.50583 | 3129 ft | 173 kts | 278° |
| 2026-04-26 14:26 | 47.46248 | 8.48803 | 3913 ft | 173 kts | 272° |
| 2026-04-26 14:27 | 47.45883 | 8.47135 | 4477 ft | 175 kts | 231° |
| 2026-04-26 14:27 | 47.44907 | 8.46062 | 4878 ft | 184 kts | 194° |
| 2026-04-26 14:27 | 47.43600 | 8.46098 | 5082 ft | 200 kts | 154° |
| 2026-04-26 14:27 | 47.42523 | 8.47464 | 5327 ft | 217 kts | 121° |
| 2026-04-26 14:28 | 47.42037 | 8.49664 | 5580 ft | 238 kts | 91° |
| 2026-04-26 14:28 | 47.42090 | 8.52229 | 5971 ft | 261 kts | 89° |
| 2026-04-26 14:28 | 47.42087 | 8.54975 | 6653 ft | 272 kts | 91° |
| 2026-04-26 14:28 | 47.42044 | 8.57797 | 7413 ft | 278 kts | 92° |
| 2026-04-26 14:29 | 47.41992 | 8.60679 | 8223 ft | 283 kts | 92° |
| 2026-04-26 14:29 | 47.41942 | 8.63613 | 9036 ft | 288 kts | 92° |
| 2026-04-26 14:29 | 47.41898 | 8.66596 | 9829 ft | 293 kts | 92° |
| 2026-04-26 14:29 | 47.41859 | 8.69645 | 10426 ft | 305 kts | 91° |
| 2026-04-26 14:30 | 47.41820 | 8.72898 | 10679 ft | 329 kts | 91° |
| 2026-04-26 14:30 | 47.41783 | 8.76355 | 11160 ft | 342 kts | 91° |
| 2026-04-26 14:30 | 47.41748 | 8.79891 | 11859 ft | 348 kts | 91° |
| 2026-04-26 14:30 | 47.41714 | 8.83495 | 12620 ft | 353 kts | 91° |
| 2026-04-26 14:31 | 47.41678 | 8.87089 | 13365 ft | 357 kts | 91° |
| 2026-04-26 14:31 | 47.41636 | 8.90787 | 14070 ft | 362 kts | 91° |
| 2026-04-26 14:31 | 47.41591 | 8.94523 | 14711 ft | 366 kts | 91° |
| 2026-04-26 14:31 | 47.41544 | 8.98305 | 15362 ft | 370 kts | 91° |
| 2026-04-26 14:32 | 47.41495 | 9.02123 | 16018 ft | 374 kts | 90° |
| 2026-04-26 14:32 | 47.41446 | 9.05984 | 16663 ft | 378 kts | 90° |
| 2026-04-26 14:32 | 47.41394 | 9.09883 | 17302 ft | 382 kts | 90° |
| 2026-04-26 14:32 | 47.41342 | 9.13817 | 17922 ft | 386 kts | 90° |
| 2026-04-26 14:33 | 47.41293 | 9.17632 | 18492 ft | 390 kts | 89° |
| 2026-04-26 14:33 | 47.41514 | 9.21639 | 19028 ft | 393 kts | 79° |
| 2026-04-26 14:33 | 47.42088 | 9.25595 | 19572 ft | 396 kts | 76° |
| 2026-04-26 14:33 | 47.42694 | 9.29588 | 20117 ft | 400 kts | 76° |
| 2026-04-26 14:34 | 47.43303 | 9.33609 | 20679 ft | 403 kts | 76° |
| 2026-04-26 14:34 | 47.43916 | 9.37668 | 21223 ft | 407 kts | 76° |
| 2026-04-26 14:34 | 47.44526 | 9.41706 | 21767 ft | 410 kts | 76° |
| 2026-04-26 14:34 | 47.45145 | 9.45835 | 22312 ft | 414 kts | 77° |
| 2026-04-26 14:35 | 47.45767 | 9.50008 | 22846 ft | 417 kts | 77° |
| 2026-04-26 14:35 | 47.46390 | 9.54212 | 23357 ft | 420 kts | 77° |
| 2026-04-26 14:35 | 47.46956 | 9.58473 | 23830 ft | 424 kts | 82° |
| 2026-04-26 14:35 | 47.47112 | 9.62844 | 24251 ft | 428 kts | 92° |
| 2026-04-26 14:36 | 47.46897 | 9.67232 | 24666 ft | 430 kts | 95° |
| 2026-04-26 14:36 | 47.46653 | 9.71647 | 25087 ft | 432 kts | 95° |
| 2026-04-26 14:36 | 47.46405 | 9.76086 | 25493 ft | 435 kts | 95° |
| 2026-04-26 14:36 | 47.46155 | 9.80552 | 25889 ft | 437 kts | 95° |
| 2026-04-26 14:37 | 47.45904 | 9.85036 | 26275 ft | 440 kts | 95° |
| 2026-04-26 14:37 | 47.45653 | 9.89556 | 26653 ft | 442 kts | 95° |
| 2026-04-26 14:37 | 47.45400 | 9.94099 | 27038 ft | 445 kts | 95° |
| 2026-04-26 14:37 | 47.45145 | 9.98665 | 27410 ft | 447 kts | 95° |
| 2026-04-26 14:38 | 47.44885 | 10.03251 | 27770 ft | 450 kts | 95° |
| 2026-04-26 14:38 | 47.44618 | 10.07866 | 28120 ft | 452 kts | 95° |
| 2026-04-26 14:38 | 47.44345 | 10.12506 | 28458 ft | 455 kts | 95° |
| 2026-04-26 14:38 | 47.44162 | 10.15594 | 28682 ft | 456 kts | 95° |
| 2026-04-26 14:39 | 47.44017 | 10.17694 | 28823 ft | 457 kts | 98° |
| 2026-04-26 14:39 | 47.43442 | 10.22325 | 29161 ft | 459 kts | 102° |
| 2026-04-26 14:39 | 47.42816 | 10.26973 | 29473 ft | 462 kts | 102° |
| 2026-04-26 14:39 | 47.42198 | 10.31628 | 29799 ft | 464 kts | 102° |
| 2026-04-26 14:40 | 47.41578 | 10.36319 | 30127 ft | 466 kts | 101° |
| 2026-04-26 14:40 | 47.40953 | 10.41024 | 30396 ft | 468 kts | 101° |